Time;durP1;ratioP1;P1;durP2;ratioP2;P2;SDS_P1;SDS_P2;PMS_P1;PMS_P2;Temp;Humidity;BMP_temperature;BMP_pressure;BME280_temperature;BME280_humidity;BME280_pressure;Samples;Min_cycle;Max_cycle;Signal;HPM_P1;HPM_P2
2020/02/11 00:01:01;;;;;;;18.5;6;;;;;;;;;;;;;
2020/02/11 00:03:25;;;;;;;20.3;6.2;;;;;;;;;;;;;
2020/02/11 00:05:49;;;;;;;18.6;4.9;;;;;;;;;;;;;
2020/02/11 00:08:15;;;;;;;18.9;4.7;;;;;;;;;;;;;
2020/02/11 00:10:40;;;;;;;19.1;5.7;;;;;;;;;;;;;
2020/02/11 00:13:05;;;;;;;18.2;4.8;;;;;;;;;;;;;
2020/02/11 00:15:30;;;;;;;17.9;5.2;;;;;;;;;;;;;
2020/02/11 00:17:55;;;;;;;22.1;6;;;;;;;;;;;;;
2020/02/11 00:20:20;;;;;;;20.9;5.4;;;;;;;;;;;;;
2020/02/11 00:22:45;;;;;;;19.7;5.6;;;;;;;;;;;;;
2020/02/11 00:25:10;;;;;;;17.3;4.8;;;;;;;;;;;;;
2020/02/11 00:27:35;;;;;;;18.4;5.3;;;;;;;;;;;;;
2020/02/11 00:30:00;;;;;;;17.6;4.9;;;;;;;;;;;;;
2020/02/11 00:32:26;;;;;;;18.2;4.9;;;;;;;;;;;;;
2020/02/11 00:34:51;;;;;;;18.5;4.3;;;;;;;;;;;;;
2020/02/11 00:37:16;;;;;;;16.7;4.1;;;;;;;;;;;;;
2020/02/11 00:39:41;;;;;;;15.4;3.7;;;;;;;;;;;;;
2020/02/11 00:42:06;;;;;;;14;3.6;;;;;;;;;;;;;
2020/02/11 00:44:31;;;;;;;4.8;0.9;;;;;;;;;;;;;
2020/02/11 00:46:56;;;;;;;2.8;0.8;;;;;;;;;;;;;
2020/02/11 00:49:24;;;;;;;2;0.6;;;;;;;;;;;;;
2020/02/11 00:54:13;;;;;;;1.7;0.6;;;;;;;;;;;;;
2020/02/11 00:56:37;;;;;;;2.3;0.6;;;;;;;;;;;;;
2020/02/11 00:59:02;;;;;;;2.6;0.5;;;;;;;;;;;;;
2020/02/11 01:01:29;;;;;;;2.2;0.4;;;;;;;;;;;;;
2020/02/11 01:03:52;;;;;;;1.5;0.4;;;;;;;;;;;;;
2020/02/11 01:06:17;;;;;;;1.8;0.4;;;;;;;;;;;;;
2020/02/11 01:08:43;;;;;;;1.6;0.4;;;;;;;;;;;;;
2020/02/11 01:11:08;;;;;;;1.7;0.5;;;;;;;;;;;;;
2020/02/11 01:13:33;;;;;;;1.3;0.4;;;;;;;;;;;;;
2020/02/11 01:15:58;;;;;;;1.7;0.5;;;;;;;;;;;;;
2020/02/11 01:18:23;;;;;;;1.4;0.3;;;;;;;;;;;;;
2020/02/11 01:20:48;;;;;;;1.8;0.5;;;;;;;;;;;;;
2020/02/11 01:23:13;;;;;;;0.8;0.3;;;;;;;;;;;;;
2020/02/11 01:25:40;;;;;;;1.5;0.4;;;;;;;;;;;;;
2020/02/11 01:28:05;;;;;;;1.2;0.3;;;;;;;;;;;;;
2020/02/11 01:30:30;;;;;;;0.9;0.3;;;;;;;;;;;;;
2020/02/11 01:32:55;;;;;;;0.9;0.3;;;;;;;;;;;;;
2020/02/11 01:35:20;;;;;;;1.1;0.3;;;;;;;;;;;;;
2020/02/11 01:37:45;;;;;;;0.8;0.3;;;;;;;;;;;;;
2020/02/11 01:41:12;;;;;;;0.6;0.3;;;;;;;;;;;;;
2020/02/11 01:43:37;;;;;;;0.7;0.3;;;;;;;;;;;;;
2020/02/11 01:46:02;;;;;;;0.7;0.3;;;;;;;;;;;;;
2020/02/11 01:48:27;;;;;;;0.7;0.3;;;;;;;;;;;;;
2020/02/11 01:50:52;;;;;;;1.3;0.4;;;;;;;;;;;;;
2020/02/11 01:53:17;;;;;;;1.6;0.4;;;;;;;;;;;;;
2020/02/11 01:55:42;;;;;;;1.4;0.4;;;;;;;;;;;;;
2020/02/11 01:58:07;;;;;;;2.2;0.4;;;;;;;;;;;;;
2020/02/11 02:00:32;;;;;;;1.9;0.3;;;;;;;;;;;;;
2020/02/11 02:02:57;;;;;;;3.2;0.5;;;;;;;;;;;;;
2020/02/11 02:05:22;;;;;;;2.8;0.6;;;;;;;;;;;;;
2020/02/11 02:07:48;;;;;;;2.5;0.6;;;;;;;;;;;;;
2020/02/11 02:10:13;;;;;;;3.2;0.6;;;;;;;;;;;;;
2020/02/11 02:12:38;;;;;;;3.5;0.5;;;;;;;;;;;;;
2020/02/11 02:15:03;;;;;;;2.5;0.5;;;;;;;;;;;;;
2020/02/11 02:17:35;;;;;;;2.2;0.6;;;;;;;;;;;;;
2020/02/11 02:19:57;;;;;;;1.9;0.5;;;;;;;;;;;;;
2020/02/11 02:22:18;;;;;;;1.2;0.4;;;;;;;;;;;;;
2020/02/11 02:24:43;;;;;;;2.5;0.7;;;;;;;;;;;;;
2020/02/11 02:27:08;;;;;;;3.1;0.9;;;;;;;;;;;;;
2020/02/11 02:29:33;;;;;;;3.6;0.9;;;;;;;;;;;;;
2020/02/11 02:32:01;;;;;;;3.3;0.9;;;;;;;;;;;;;
2020/02/11 02:34:34;;;;;;;3.3;0.9;;;;;;;;;;;;;
2020/02/11 02:39:27;;;;;;;3.1;0.8;;;;;;;;;;;;;
2020/02/11 02:43:00;;;;;;;4.4;1;;;;;;;;;;;;;
2020/02/11 02:44:18;;;;;;;4.3;0.9;;;;;;;;;;;;;
2020/02/11 02:49:03;;;;;;;4.4;1;;;;;;;;;;;;;
2020/02/11 02:51:29;;;;;;;3.9;0.9;;;;;;;;;;;;;
